Terminal Aerodrome Forecast
Issued by NWS

Current Version | Previous Version | Text Only | Print | Product List | Glossary On
Versions: 1 2 3 4 5 6 7 8 9 10 11 12 13 14 15 16
000
FTUS46 KEKA 301148
TAFUKI
TAF
KUKI 301148Z 3012/3112 00000KT P6SM SCT035 SCT250
     FM301700 34004KT P6SM FEW250
     FM302100 32008G14KT P6SM SKC
     FM310400 36003KT P6SM SKC
     FM310600 00000KT P6SM SCT010=

USA.gov is the U.S. government's official web portal to all federal, state and local government web resources and services.